createdAt,value
2022-12-29T00:00:27.796Z,2.10
2022-12-29T00:01:27.057Z,2.20
2022-12-29T00:02:12.538Z,2.10
2022-12-29T00:04:51.421Z,2.40
2022-12-29T00:05:25.144Z,1.90
2022-12-29T00:06:00.020Z,2.30
2022-12-29T00:06:37.736Z,2.30
2022-12-29T00:08:00.903Z,2.20
2022-12-29T00:09:28.338Z,2.60
2022-12-29T00:10:07.235Z,2.20
2022-12-29T00:10:40.576Z,2.30
2022-12-29T00:11:16.546Z,2.20
2022-12-29T00:11:51.345Z,2.50
2022-12-29T00:12:24.680Z,2.60
2022-12-29T00:13:16.375Z,2.70
2022-12-29T00:14:09.328Z,2.70
2022-12-29T00:15:00.902Z,2.80
2022-12-29T00:15:40.154Z,3.00
2022-12-29T00:16:15.161Z,2.40
2022-12-29T00:17:27.161Z,2.30
2022-12-29T00:18:04.260Z,2.70
2022-12-29T00:18:37.686Z,2.60
2022-12-29T00:19:31.841Z,2.80
2022-12-29T00:20:24.287Z,2.50
2022-12-29T00:21:16.571Z,2.40
2022-12-29T00:22:12.882Z,2.40
2022-12-29T00:23:05.910Z,2.20
2022-12-29T00:23:58.983Z,2.70
2022-12-29T00:24:52.298Z,2.50
2022-12-29T00:25:45.398Z,2.50
2022-12-29T00:26:37.139Z,2.10
2022-12-29T00:27:32.601Z,2.70
2022-12-29T00:28:29.300Z,2.30
2022-12-29T00:29:21.675Z,3.00
2022-12-29T00:30:18.867Z,2.40
2022-12-29T00:31:32.497Z,1.90
2022-12-29T00:32:27.472Z,1.90
2022-12-29T00:33:19.416Z,2.00
2022-12-29T00:34:11.297Z,1.90
2022-12-29T00:35:03.557Z,1.60
2022-12-29T00:35:44.386Z,1.90
2022-12-29T00:36:26.647Z,1.60
2022-12-29T00:37:12.441Z,1.60
2022-12-29T00:39:54.291Z,1.50
2022-12-29T00:40:46.323Z,1.80
2022-12-29T00:41:38.553Z,1.90
2022-12-29T00:42:30.811Z,1.60
2022-12-29T00:43:22.555Z,1.90
2022-12-29T00:44:08.237Z,1.70
2022-12-29T00:44:41.667Z,1.90
2022-12-29T00:45:16.678Z,2.00
2022-12-29T00:45:51.673Z,1.80
2022-12-29T00:46:25.093Z,1.90
2022-12-29T00:46:58.606Z,1.90
2022-12-29T00:49:31.518Z,2.00
2022-12-29T00:50:05.311Z,1.80
2022-12-29T00:50:38.675Z,1.80
2022-12-29T00:50:47.869Z,1.70
2022-12-29T00:51:12.064Z,2.20
2022-12-29T00:51:47.822Z,1.90
2022-12-29T00:52:23.430Z,2.00
2022-12-29T00:53:17.059Z,1.90
2022-12-29T00:53:56.400Z,1.60
2022-12-29T01:01:52.297Z,1.70
2022-12-29T01:02:26.671Z,1.80
2022-12-29T01:03:00.295Z,1.60
2022-12-29T01:03:34.918Z,2.00
2022-12-29T01:04:09.532Z,2.00
2022-12-29T01:04:42.983Z,2.20
2022-12-29T01:05:16.424Z,2.00
2022-12-29T01:05:52.624Z,1.90
2022-12-29T01:06:25.991Z,1.80
2022-12-29T01:06:59.402Z,1.80
2022-12-29T01:07:32.866Z,1.90
2022-12-29T01:08:08.775Z,2.10
2022-12-29T01:08:42.323Z,1.90
2022-12-29T01:09:36.508Z,2.00
2022-12-29T01:10:13.047Z,1.80
2022-12-29T01:10:46.481Z,2.10
2022-12-29T01:11:20.140Z,1.80
2022-12-29T01:11:56.208Z,1.90
2022-12-29T01:12:43.466Z,1.70
2022-12-29T01:13:17.576Z,1.80
2022-12-29T01:13:51.272Z,1.90
2022-12-29T01:14:25.288Z,1.70
2022-12-29T01:15:21.023Z,2.00
2022-12-29T01:15:57.826Z,2.10
2022-12-29T01:16:31.510Z,1.60
2022-12-29T01:17:06.131Z,1.80
2022-12-29T01:17:40.577Z,1.80
2022-12-29T01:18:13.943Z,1.80
2022-12-29T01:18:54.810Z,1.90
2022-12-29T01:19:28.806Z,2.00
2022-12-29T01:20:04.458Z,2.30
2022-12-29T01:20:37.807Z,2.00
2022-12-29T01:21:11.887Z,1.80
2022-12-29T01:21:46.732Z,1.70
2022-12-29T01:22:20.089Z,1.80
2022-12-29T01:22:56.709Z,1.90
2022-12-29T01:23:34.463Z,1.90
2022-12-29T01:24:08.522Z,2.10
2022-12-29T01:24:41.890Z,2.40
2022-12-29T01:25:15.382Z,2.20
2022-12-29T01:25:51.345Z,2.30
2022-12-29T01:26:24.712Z,2.30
2022-12-29T01:26:58.904Z,2.10
2022-12-29T01:27:32.312Z,2.10
2022-12-29T01:28:06.322Z,1.70
2022-12-29T01:28:41.463Z,1.80
2022-12-29T01:29:15.612Z,1.90
2022-12-29T01:29:49.094Z,1.70
2022-12-29T01:30:22.458Z,1.80
2022-12-29T01:31:02.184Z,2.00
2022-12-29T01:31:35.732Z,2.00
2022-12-29T01:32:16.701Z,1.90
2022-12-29T01:32:54.293Z,1.80
2022-12-29T01:33:29.117Z,1.80
2022-12-29T01:34:05.833Z,1.80
2022-12-29T01:35:10.476Z,1.90
2022-12-29T01:36:00.785Z,1.70
2022-12-29T01:36:34.973Z,1.90
2022-12-29T01:37:19.774Z,2.00
2022-12-29T01:37:53.312Z,1.60
2022-12-29T01:38:27.091Z,1.70
2022-12-29T01:39:00.546Z,2.10
2022-12-29T01:40:00.002Z,2.00
2022-12-29T01:40:33.514Z,2.00
2022-12-29T01:41:09.282Z,1.90
2022-12-29T01:41:42.800Z,1.70
2022-12-29T01:42:19.072Z,1.70
2022-12-29T01:42:53.534Z,1.90
2022-12-29T01:44:25.189Z,1.80
2022-12-29T01:45:11.788Z,1.60
2022-12-29T01:45:50.603Z,1.80
2022-12-29T01:46:33.447Z,2.00
2022-12-29T01:47:09.576Z,2.10
2022-12-29T01:48:00.223Z,2.20
2022-12-29T01:48:33.714Z,2.10
2022-12-29T01:49:33.661Z,2.10
2022-12-29T01:50:28.638Z,1.80
2022-12-29T01:51:02.291Z,2.10
2022-12-29T01:51:58.911Z,2.00
2022-12-29T01:52:36.667Z,1.80
2022-12-29T01:53:14.998Z,1.70
2022-12-29T01:54:35.795Z,1.90
2022-12-29T01:54:56.260Z,1.80
2022-12-29T01:55:34.107Z,1.90
2022-12-29T01:56:12.120Z,1.60
2022-12-29T01:56:47.133Z,1.90
2022-12-29T01:57:27.254Z,1.90
2022-12-29T01:58:04.782Z,1.70
2022-12-29T01:58:42.986Z,1.80
2022-12-29T01:59:22.167Z,1.80
2022-12-29T02:00:02.112Z,1.90
2022-12-29T02:00:47.105Z,1.90
2022-12-29T02:01:22.083Z,1.80
2022-12-29T02:01:56.138Z,1.70
2022-12-29T02:02:33.229Z,2.10
2022-12-29T02:03:09.139Z,1.80
2022-12-29T02:03:43.160Z,1.80
2022-12-29T02:04:16.945Z,2.10
2022-12-29T02:04:53.603Z,1.80
2022-12-29T02:05:45.265Z,2.00
2022-12-29T02:06:27.080Z,1.80
2022-12-29T02:07:07.563Z,1.70
2022-12-29T02:07:43.723Z,1.80
2022-12-29T02:08:18.221Z,1.90
2022-12-29T02:08:54.860Z,2.20
2022-12-29T02:09:29.676Z,2.10
2022-12-29T02:10:04.306Z,1.90
2022-12-29T02:10:38.156Z,2.10
2022-12-29T02:11:22.571Z,1.80
2022-12-29T02:12:25.025Z,1.80
2022-12-29T02:12:58.461Z,2.20
2022-12-29T02:13:32.083Z,1.70
2022-12-29T02:14:15.611Z,1.80
2022-12-29T02:14:52.109Z,1.80
2022-12-29T02:16:00.544Z,1.90
2022-12-29T02:16:39.781Z,2.00
2022-12-29T02:17:31.536Z,2.10
2022-12-29T02:18:08.836Z,1.80
2022-12-29T02:19:00.766Z,2.00
2022-12-29T02:19:55.398Z,2.00
2022-12-29T02:20:51.527Z,1.90
2022-12-29T02:21:39.704Z,1.80
2022-12-29T02:22:34.958Z,1.90
2022-12-29T02:23:33.163Z,1.80
2022-12-29T02:24:54.898Z,1.70
2022-12-29T02:25:54.807Z,2.00
2022-12-29T02:26:43.469Z,1.70
2022-12-29T02:27:40.422Z,2.00
2022-12-29T02:28:39.101Z,2.10
2022-12-29T02:29:39.220Z,1.90
2022-12-29T02:30:31.275Z,2.00
2022-12-29T02:31:26.741Z,1.80
2022-12-29T02:32:53.407Z,2.00
2022-12-29T02:33:49.261Z,2.20
2022-12-29T02:34:37.334Z,1.90
2022-12-29T02:35:45.577Z,1.90
2022-12-29T02:36:40.079Z,1.80
2022-12-29T02:37:16.645Z,1.80
2022-12-29T02:38:02.184Z,1.60
2022-12-29T02:38:50.691Z,1.80
2022-12-29T02:39:51.392Z,2.00
2022-12-29T02:40:29.124Z,2.00
2022-12-29T02:41:29.957Z,1.90
2022-12-29T02:42:22.843Z,2.00
2022-12-29T02:43:22.611Z,1.90
2022-12-29T02:44:06.941Z,1.80
2022-12-29T03:02:35.255Z,2.00
2022-12-29T03:03:08.220Z,1.80
2022-12-29T03:04:10.442Z,1.90
2022-12-29T03:05:04.317Z,1.90
2022-12-29T03:06:18.188Z,2.00
2022-12-29T03:07:01.084Z,1.80
2022-12-29T03:07:38.603Z,1.90
2022-12-29T03:08:35.862Z,1.90
2022-12-29T03:09:48.633Z,2.00
2022-12-29T03:10:48.941Z,1.90
2022-12-29T03:11:46.848Z,2.00
2022-12-29T03:13:10.977Z,1.80
2022-12-29T03:14:06.292Z,1.70
2022-12-29T03:15:28.761Z,2.00
2022-12-29T03:16:31.198Z,2.00
2022-12-29T03:17:21.477Z,1.80
2022-12-29T03:18:06.670Z,1.80
2022-12-29T03:18:39.473Z,1.90
2022-12-29T03:19:20.901Z,1.90
2022-12-29T03:19:57.748Z,1.80
2022-12-29T03:20:40.067Z,1.90
2022-12-29T03:21:12.246Z,2.00
2022-12-29T03:22:11.682Z,1.80
2022-12-29T03:22:50.029Z,1.80
2022-12-29T03:23:30.004Z,1.90
2022-12-29T03:24:03.724Z,1.70
2022-12-29T03:24:45.308Z,1.90
2022-12-29T03:25:25.132Z,1.60
2022-12-29T03:26:02.584Z,2.00
2022-12-29T03:26:36.975Z,1.90
2022-12-29T03:27:15.811Z,2.00
2022-12-29T03:27:53.796Z,1.90
2022-12-29T03:28:41.523Z,1.90
2022-12-29T03:29:17.553Z,1.70
2022-12-29T03:29:58.157Z,1.80
2022-12-29T03:30:33.076Z,2.10
2022-12-29T03:31:08.644Z,1.90
2022-12-29T03:31:42.902Z,1.70
2022-12-29T03:32:17.139Z,1.80
2022-12-29T03:32:57.196Z,2.10
2022-12-29T03:33:32.966Z,1.90
2022-12-29T03:34:07.949Z,2.10
2022-12-29T03:34:40.448Z,1.90
2022-12-29T03:35:16.698Z,1.70
2022-12-29T03:35:51.427Z,1.90
2022-12-29T03:36:44.524Z,1.80
2022-12-29T03:37:24.587Z,1.60
2022-12-29T03:38:11.588Z,1.60
2022-12-29T03:39:03.883Z,1.60
2022-12-29T03:39:36.339Z,1.70
2022-12-29T03:40:09.197Z,1.70
2022-12-29T03:40:45.435Z,1.50
2022-12-29T03:41:23.757Z,1.70
2022-12-29T03:42:04.777Z,1.70
2022-12-29T03:42:39.039Z,1.50
2022-12-29T03:43:13.034Z,1.60
2022-12-29T03:43:46.148Z,1.60
2022-12-29T03:44:18.267Z,1.80
2022-12-29T03:44:55.255Z,1.50
2022-12-29T03:45:27.797Z,1.40
2022-12-29T03:45:59.888Z,1.50
2022-12-29T03:46:31.974Z,1.60
2022-12-29T03:47:04.852Z,1.40
2022-12-29T03:47:37.043Z,1.50
2022-12-29T03:48:09.129Z,1.40
2022-12-29T03:48:43.560Z,1.30
2022-12-29T03:49:15.991Z,1.50
2022-12-29T03:49:51.189Z,1.30
2022-12-29T03:50:23.478Z,1.40
2022-12-29T03:50:55.605Z,1.50
2022-12-29T03:51:28.159Z,1.50
2022-12-29T03:52:00.481Z,1.20
2022-12-29T03:52:33.166Z,1.60
2022-12-29T03:53:05.236Z,1.50
2022-12-29T03:53:37.328Z,1.50
2022-12-29T03:54:09.329Z,1.40
2022-12-29T03:54:41.775Z,1.30
2022-12-29T03:55:13.959Z,1.40
2022-12-29T03:55:46.200Z,1.30
2022-12-29T03:56:18.356Z,1.30
2022-12-29T03:56:53.792Z,1.30
2022-12-29T03:57:34.710Z,1.40
2022-12-29T03:58:10.229Z,1.40
2022-12-29T03:59:05.248Z,1.30
2022-12-29T03:59:42.856Z,1.50
2022-12-29T04:00:15.133Z,1.40
2022-12-29T04:00:47.433Z,1.40
2022-12-29T04:01:19.851Z,1.20
2022-12-29T04:01:52.242Z,1.40
2022-12-29T04:02:25.220Z,1.30
2022-12-29T04:02:58.579Z,1.50
2022-12-29T04:03:31.082Z,1.40
2022-12-29T04:04:03.223Z,1.50
2022-12-29T04:04:35.323Z,1.50
2022-12-29T04:05:08.051Z,1.30
2022-12-29T04:05:40.281Z,1.40
2022-12-29T04:06:12.584Z,1.50
2022-12-29T04:06:51.199Z,1.50
2022-12-29T04:07:23.428Z,1.40
2022-12-29T04:07:57.474Z,1.30
2022-12-29T04:08:29.552Z,1.60
2022-12-29T04:09:01.745Z,1.30
2022-12-29T04:09:35.745Z,1.40
2022-12-29T04:10:08.867Z,1.50
2022-12-29T04:10:41.321Z,1.20
2022-12-29T04:11:13.492Z,1.50
2022-12-29T04:11:47.090Z,1.60
2022-12-29T04:12:19.503Z,1.30
2022-12-29T04:12:52.373Z,1.50
2022-12-29T04:13:24.501Z,1.60
2022-12-29T04:13:57.734Z,1.30
2022-12-29T04:14:31.208Z,1.60
2022-12-29T04:15:04.663Z,1.50
2022-12-29T04:15:38.159Z,1.40
2022-12-29T04:16:10.308Z,1.40
2022-12-29T04:16:42.510Z,1.50
2022-12-29T04:17:14.672Z,1.80
2022-12-29T04:17:48.007Z,1.60
2022-12-29T04:18:20.225Z,1.40
2022-12-29T04:18:52.376Z,1.60
2022-12-29T04:19:24.661Z,1.40
2022-12-29T04:20:16.821Z,1.60
2022-12-29T04:21:10.194Z,1.70
2022-12-29T04:21:44.812Z,1.60
2022-12-29T04:22:23.259Z,1.60
2022-12-29T04:23:03.375Z,1.80
2022-12-29T04:23:39.963Z,1.60
2022-12-29T04:24:14.299Z,1.80
2022-12-29T04:24:47.191Z,1.80
2022-12-29T04:25:19.369Z,1.80
2022-12-29T04:25:51.450Z,1.80
2022-12-29T04:26:23.681Z,1.80
2022-12-29T04:27:36.700Z,1.90
2022-12-29T04:28:31.835Z,2.10
2022-12-29T04:29:28.774Z,2.30
2022-12-29T04:30:23.921Z,2.40
2022-12-29T04:31:22.348Z,2.20
2022-12-29T04:31:55.550Z,2.30
2022-12-29T04:32:27.680Z,2.20
2022-12-29T04:33:00.920Z,2.30
2022-12-29T04:33:34.033Z,2.30
2022-12-29T04:34:06.389Z,2.20
2022-12-29T04:34:38.543Z,2.20
2022-12-29T04:35:11.650Z,2.20
2022-12-29T04:35:45.441Z,2.00
2022-12-29T04:36:17.683Z,1.90
2022-12-29T04:36:51.200Z,2.10
2022-12-29T04:37:23.383Z,1.90
2022-12-29T04:37:55.483Z,1.90
2022-12-29T04:38:27.844Z,2.00
2022-12-29T04:39:00.598Z,2.00
2022-12-29T04:39:34.557Z,1.80
2022-12-29T04:40:07.377Z,2.10
2022-12-29T04:40:41.189Z,1.90
2022-12-29T04:41:14.205Z,1.90
2022-12-29T04:41:46.933Z,2.00
2022-12-29T04:42:22.913Z,1.80
2022-12-29T04:42:55.647Z,1.80
2022-12-29T04:43:28.665Z,1.70
2022-12-29T04:44:23.676Z,2.00
2022-12-29T04:44:58.621Z,1.90
2022-12-29T04:45:56.110Z,1.70
2022-12-29T04:46:34.118Z,2.00
2022-12-29T04:47:23.928Z,1.70
2022-12-29T04:48:16.534Z,1.70
2022-12-29T04:48:55.819Z,2.00
2022-12-29T04:49:52.721Z,2.00
2022-12-29T04:50:44.427Z,2.00
2022-12-29T04:51:24.929Z,2.10
2022-12-29T04:51:57.675Z,2.10
2022-12-29T04:52:29.867Z,1.80
2022-12-29T04:53:02.605Z,1.70
2022-12-29T04:53:34.830Z,2.00
2022-12-29T04:54:06.928Z,1.90
2022-12-29T04:54:40.328Z,1.90
2022-12-29T04:55:17.786Z,1.70
2022-12-29T04:55:52.438Z,2.00
2022-12-29T04:56:24.769Z,2.10
2022-12-29T04:56:56.945Z,1.70
2022-12-29T04:57:30.342Z,2.10
2022-12-29T04:58:04.627Z,2.00
2022-12-29T04:58:38.464Z,1.80
2022-12-29T04:59:10.866Z,1.70
2022-12-29T04:59:42.985Z,1.80
2022-12-29T05:00:15.880Z,1.90
2022-12-29T05:00:48.228Z,1.80
2022-12-29T05:01:20.575Z,1.80
2022-12-29T05:01:52.980Z,2.00
2022-12-29T05:02:25.448Z,1.70
2022-12-29T05:02:58.402Z,1.80
2022-12-29T05:03:31.060Z,1.90
2022-12-29T05:04:03.297Z,1.80
2022-12-29T05:04:35.599Z,1.50
2022-12-29T05:05:08.948Z,1.60
2022-12-29T05:05:45.260Z,1.90
2022-12-29T05:06:17.589Z,1.60
2022-12-29T05:06:51.445Z,1.60
2022-12-29T05:07:23.602Z,1.80
2022-12-29T05:07:56.597Z,1.70
2022-12-29T05:08:28.794Z,1.70
2022-12-29T05:09:03.478Z,1.80
2022-12-29T05:09:35.598Z,1.80
2022-12-29T05:10:08.521Z,1.80
2022-12-29T05:10:41.063Z,1.80
2022-12-29T05:11:17.262Z,1.70
2022-12-29T05:11:51.041Z,2.10
2022-12-29T05:12:23.112Z,1.90
2022-12-29T05:13:04.570Z,2.00
2022-12-29T05:13:37.663Z,1.90
2022-12-29T05:14:10.115Z,2.00
2022-12-29T05:14:42.791Z,1.90
2022-12-29T05:15:15.157Z,1.90
2022-12-29T05:15:51.265Z,2.10
2022-12-29T05:16:23.530Z,1.90
2022-12-29T05:16:56.177Z,1.70
2022-12-29T05:17:28.218Z,1.80
2022-12-29T05:18:01.444Z,1.80
2022-12-29T05:18:33.869Z,1.70
2022-12-29T05:19:06.248Z,1.70
2022-12-29T05:19:41.198Z,1.70
2022-12-29T05:20:13.814Z,1.80
2022-12-29T05:20:48.186Z,1.90
2022-12-29T05:21:20.324Z,1.80
2022-12-29T05:21:52.709Z,1.70
2022-12-29T05:22:25.844Z,1.90
2022-12-29T05:22:58.296Z,1.80
2022-12-29T05:23:30.387Z,1.80
2022-12-29T05:24:06.798Z,1.70
2022-12-29T05:24:38.942Z,1.90
2022-12-29T05:25:11.433Z,2.00
2022-12-29T05:26:13.052Z,1.70
2022-12-29T05:27:08.606Z,1.80
2022-12-29T05:28:04.249Z,1.70
2022-12-29T05:28:49.553Z,1.60
2022-12-29T05:29:24.795Z,1.70
2022-12-29T05:29:57.813Z,1.60
2022-12-29T05:30:30.467Z,1.60
2022-12-29T05:31:03.078Z,1.40
2022-12-29T05:31:36.223Z,1.70
2022-12-29T05:32:09.665Z,1.70
2022-12-29T05:32:41.904Z,1.70
2022-12-29T05:33:14.181Z,1.50
2022-12-29T05:33:46.471Z,1.60
2022-12-29T05:34:18.659Z,1.80
2022-12-29T05:34:51.505Z,1.60
2022-12-29T05:35:23.822Z,1.80
2022-12-29T05:35:56.757Z,1.50
2022-12-29T05:36:35.771Z,1.70
2022-12-29T05:37:09.914Z,1.70
2022-12-29T05:37:43.732Z,1.70
2022-12-29T05:38:15.924Z,1.50
2022-12-29T05:38:48.980Z,1.30
2022-12-29T05:39:22.189Z,1.50
2022-12-29T05:39:59.830Z,1.50
2022-12-29T05:40:32.076Z,1.70
2022-12-29T05:41:08.498Z,1.40
2022-12-29T05:41:59.726Z,1.50
2022-12-29T05:42:52.221Z,1.50
2022-12-29T05:43:43.027Z,1.50
2022-12-29T05:44:23.345Z,1.50
2022-12-29T05:45:08.693Z,1.40
2022-12-29T05:45:58.566Z,1.40
2022-12-29T05:46:51.131Z,1.20
2022-12-29T05:47:47.558Z,1.60
2022-12-29T05:48:38.150Z,1.20
2022-12-29T05:49:23.065Z,1.40
2022-12-29T05:50:02.541Z,1.30
2022-12-29T05:50:48.129Z,1.20
2022-12-29T05:51:21.883Z,1.60
2022-12-29T05:51:57.336Z,1.20
2022-12-29T05:52:29.434Z,1.40
2022-12-29T05:53:01.772Z,1.40
2022-12-29T05:53:34.398Z,1.30
2022-12-29T05:54:06.517Z,1.40
2022-12-29T05:54:39.394Z,1.30
2022-12-29T05:55:17.618Z,1.50
2022-12-29T05:55:52.345Z,1.60
2022-12-29T05:56:25.826Z,1.20
2022-12-29T05:57:01.998Z,1.40
2022-12-29T05:57:34.432Z,1.60
2022-12-29T05:58:16.412Z,1.30
2022-12-29T05:58:49.496Z,1.70
2022-12-29T05:59:24.043Z,1.50
2022-12-29T05:59:57.313Z,1.60
2022-12-29T06:00:29.410Z,1.50
2022-12-29T06:01:01.597Z,1.30
2022-12-29T06:01:34.910Z,1.40
2022-12-29T06:02:07.430Z,1.50
2022-12-29T06:02:40.476Z,1.50
2022-12-29T06:03:13.316Z,1.30
2022-12-29T06:03:48.406Z,1.20
2022-12-29T06:04:21.291Z,1.20
2022-12-29T06:04:53.493Z,1.40
2022-12-29T06:05:26.167Z,1.20
2022-12-29T06:05:58.270Z,1.20
2022-12-29T06:06:31.254Z,1.40
2022-12-29T06:07:03.668Z,1.20
2022-12-29T06:07:48.308Z,1.20
2022-12-29T06:08:22.327Z,1.40
2022-12-29T06:08:54.487Z,1.30
2022-12-29T06:09:26.661Z,1.20
2022-12-29T06:09:59.793Z,1.50
2022-12-29T06:10:33.020Z,1.40
2022-12-29T06:11:10.035Z,1.10
2022-12-29T06:11:43.461Z,1.40
2022-12-29T06:12:15.724Z,1.10
2022-12-29T06:12:50.019Z,1.20
2022-12-29T06:13:22.530Z,1.30
2022-12-29T06:13:55.911Z,1.10
2022-12-29T06:14:29.115Z,1.30
2022-12-29T06:15:01.489Z,1.30
2022-12-29T06:15:34.756Z,1.10
2022-12-29T06:16:09.546Z,1.50
2022-12-29T06:16:43.714Z,1.30
2022-12-29T06:17:18.159Z,1.20
2022-12-29T06:17:50.474Z,1.50
2022-12-29T06:18:23.349Z,1.30
2022-12-29T06:18:56.747Z,1.20
2022-12-29T06:19:28.932Z,1.30
2022-12-29T06:20:01.015Z,1.30
2022-12-29T06:20:33.654Z,1.30
2022-12-29T06:21:08.588Z,1.40
2022-12-29T06:21:41.821Z,1.30
2022-12-29T06:22:14.942Z,1.10
2022-12-29T06:22:48.617Z,1.50
2022-12-29T06:23:21.462Z,1.20
2022-12-29T06:23:53.605Z,1.30
2022-12-29T06:24:26.061Z,1.10
2022-12-29T06:25:04.428Z,1.20
2022-12-29T06:25:38.102Z,1.30
2022-12-29T06:26:10.370Z,1.40
2022-12-29T06:26:43.439Z,1.30
2022-12-29T06:27:15.611Z,1.30
2022-12-29T06:27:47.871Z,1.40
2022-12-29T06:28:20.141Z,1.30
2022-12-29T06:28:52.273Z,1.30
2022-12-29T06:29:24.310Z,1.30
2022-12-29T06:29:56.584Z,1.40
2022-12-29T06:30:28.876Z,1.20
2022-12-29T06:31:04.928Z,1.30
2022-12-29T06:31:37.168Z,1.30
2022-12-29T06:32:10.194Z,1.20
2022-12-29T06:32:46.261Z,1.20
2022-12-29T06:33:18.801Z,1.40
2022-12-29T06:33:50.928Z,1.20
2022-12-29T06:34:23.111Z,1.40
2022-12-29T06:34:55.205Z,1.50
2022-12-29T06:35:27.608Z,1.30
2022-12-29T06:35:59.878Z,1.80
2022-12-29T06:36:32.002Z,1.80
2022-12-29T06:37:04.367Z,1.90
2022-12-29T06:37:36.625Z,1.70
2022-12-29T06:38:08.764Z,1.90
2022-12-29T06:38:43.683Z,1.60
2022-12-29T06:39:15.733Z,1.80
2022-12-29T06:39:55.948Z,1.60
2022-12-29T06:40:32.244Z,1.60
2022-12-29T06:41:12.412Z,1.50
2022-12-29T06:42:10.996Z,1.70
2022-12-29T06:42:54.635Z,1.50
2022-12-29T06:43:47.080Z,1.30
2022-12-29T06:45:03.657Z,1.50
2022-12-29T06:45:38.003Z,1.40
2022-12-29T06:46:10.311Z,1.40
2022-12-29T06:46:42.485Z,1.40
2022-12-29T06:47:14.639Z,1.40
2022-12-29T06:47:46.833Z,1.40
2022-12-29T06:48:19.001Z,1.30
2022-12-29T06:48:51.189Z,1.30
2022-12-29T06:49:23.660Z,1.30
2022-12-29T06:49:55.733Z,1.30
2022-12-29T06:50:27.816Z,1.10
2022-12-29T06:50:59.987Z,1.30
2022-12-29T06:51:32.136Z,1.20
2022-12-29T06:52:09.103Z,1.40
2022-12-29T06:52:44.795Z,1.40
2022-12-29T06:53:16.980Z,1.40
2022-12-29T06:53:49.984Z,1.40
2022-12-29T06:54:22.103Z,1.30
2022-12-29T06:54:54.237Z,1.60
2022-12-29T06:55:26.538Z,1.30
2022-12-29T06:55:58.878Z,1.40
2022-12-29T06:56:30.991Z,1.10
2022-12-29T06:57:03.442Z,1.50
2022-12-29T06:57:35.615Z,1.80
2022-12-29T06:58:07.858Z,1.60
2022-12-29T06:58:40.040Z,1.50
2022-12-29T06:59:12.470Z,1.40
2022-12-29T06:59:44.568Z,1.50
2022-12-29T07:00:22.482Z,1.60
2022-12-29T07:00:55.316Z,1.60
2022-12-29T07:01:27.806Z,1.50
2022-12-29T07:02:02.481Z,1.60
2022-12-29T07:02:34.986Z,1.40
2022-12-29T07:03:07.373Z,1.70
2022-12-29T07:03:43.209Z,1.40
2022-12-29T07:04:15.383Z,1.40
2022-12-29T07:04:47.506Z,1.50
2022-12-29T07:05:19.654Z,1.60
2022-12-29T07:05:51.778Z,1.60
2022-12-29T07:06:24.357Z,1.40
2022-12-29T07:06:56.622Z,1.60
2022-12-29T07:07:28.631Z,1.60
2022-12-29T07:08:02.454Z,1.70
2022-12-29T07:08:34.637Z,1.50
2022-12-29T07:09:07.398Z,1.50
2022-12-29T07:09:39.376Z,1.60
2022-12-29T07:10:11.579Z,1.40
2022-12-29T07:10:43.640Z,1.70
2022-12-29T07:11:15.834Z,1.70
2022-12-29T07:11:49.450Z,1.80
2022-12-29T07:12:21.691Z,1.80
2022-12-29T07:12:53.861Z,1.50
2022-12-29T07:13:26.005Z,1.70
2022-12-29T07:14:04.720Z,1.80
2022-12-29T07:14:42.948Z,1.70
2022-12-29T07:15:15.886Z,1.90
2022-12-29T07:15:48.539Z,2.10
2022-12-29T07:16:20.899Z,2.00
2022-12-29T07:16:53.600Z,2.10
2022-12-29T07:17:25.768Z,2.50
2022-12-29T07:17:57.844Z,2.40
2022-12-29T07:18:29.819Z,2.30
2022-12-29T07:19:02.019Z,2.60
2022-12-29T07:19:36.600Z,2.60
2022-12-29T07:20:10.632Z,2.40
2022-12-29T07:20:44.779Z,2.50
2022-12-29T07:21:19.132Z,2.20
2022-12-29T07:21:53.312Z,2.10
2022-12-29T07:22:26.022Z,2.00
2022-12-29T07:23:00.444Z,2.40
2022-12-29T07:23:33.538Z,2.20
2022-12-29T07:24:07.308Z,2.30
2022-12-29T07:24:40.526Z,2.30
2022-12-29T07:25:12.608Z,2.20
2022-12-29T07:25:44.657Z,2.30
2022-12-29T07:26:18.520Z,2.40
2022-12-29T07:26:50.454Z,2.30
2022-12-29T07:27:25.439Z,2.30
2022-12-29T07:27:57.573Z,2.40
2022-12-29T07:28:30.096Z,2.30
2022-12-29T07:29:03.245Z,2.30
2022-12-29T07:29:37.502Z,2.20
2022-12-29T07:30:10.084Z,2.30
2022-12-29T07:30:42.267Z,2.10
2022-12-29T07:31:17.168Z,2.20
2022-12-29T07:31:49.505Z,2.10
2022-12-29T07:32:21.593Z,2.50
2022-12-29T07:32:53.684Z,2.40
2022-12-29T07:33:26.279Z,2.30
2022-12-29T07:33:58.245Z,2.60
2022-12-29T07:34:30.380Z,2.60
2022-12-29T07:35:03.210Z,2.60
2022-12-29T07:35:35.776Z,2.40
2022-12-29T07:36:08.215Z,2.40
2022-12-29T07:36:40.282Z,2.60
2022-12-29T07:37:12.576Z,2.40
2022-12-29T07:37:44.695Z,2.40
2022-12-29T07:38:16.985Z,2.30
2022-12-29T07:38:49.118Z,2.60
2022-12-29T07:39:21.418Z,2.70
2022-12-29T07:39:53.699Z,2.60
2022-12-29T07:40:25.769Z,2.60
2022-12-29T07:40:58.974Z,2.50
2022-12-29T07:41:33.658Z,2.50
2022-12-29T07:42:07.962Z,2.40
2022-12-29T07:42:47.254Z,2.50
2022-12-29T07:43:21.377Z,2.60
2022-12-29T07:44:10.504Z,2.20
2022-12-29T07:45:01.820Z,2.50
2022-12-29T07:45:41.361Z,2.60
2022-12-29T07:46:56.343Z,2.20
2022-12-29T07:47:10.749Z,2.60
2022-12-29T07:47:49.534Z,2.40
2022-12-29T07:48:22.029Z,2.30
2022-12-29T07:48:54.159Z,2.30
2022-12-29T07:49:26.289Z,2.60
2022-12-29T07:49:58.367Z,2.40
2022-12-29T07:50:30.519Z,2.50
2022-12-29T07:51:02.669Z,2.30
2022-12-29T07:51:34.860Z,2.60
2022-12-29T07:52:06.952Z,2.30
2022-12-29T07:52:39.095Z,2.30
2022-12-29T07:53:11.264Z,2.70
2022-12-29T07:53:43.425Z,2.40
2022-12-29T07:54:18.599Z,2.50
2022-12-29T07:54:50.845Z,2.40
2022-12-29T07:55:22.950Z,2.20
2022-12-29T07:55:56.664Z,2.30
2022-12-29T07:56:28.745Z,2.30
2022-12-29T07:57:00.954Z,2.40
2022-12-29T07:57:33.039Z,2.30
2022-12-29T07:58:05.239Z,2.30
2022-12-29T07:58:37.209Z,2.40
2022-12-29T07:59:09.349Z,2.00
2022-12-29T07:59:41.469Z,2.30
2022-12-29T08:00:14.368Z,2.10
2022-12-29T08:00:46.468Z,2.20
2022-12-29T08:01:23.837Z,1.90
2022-12-29T08:01:56.433Z,2.30
2022-12-29T08:02:29.376Z,2.00
2022-12-29T08:03:01.747Z,2.00
2022-12-29T08:03:34.154Z,2.10
2022-12-29T08:04:06.455Z,2.20
2022-12-29T08:04:38.870Z,2.40
2022-12-29T08:05:10.937Z,2.10
2022-12-29T08:05:42.888Z,2.10
2022-12-29T08:06:15.053Z,2.30
2022-12-29T08:06:47.108Z,2.30
2022-12-29T08:07:19.205Z,2.20
2022-12-29T08:07:51.761Z,2.40
2022-12-29T08:08:23.847Z,2.10
2022-12-29T08:08:56.833Z,2.00
2022-12-29T08:09:28.918Z,2.10
2022-12-29T08:10:01.927Z,2.20
2022-12-29T08:10:34.412Z,2.50
2022-12-29T08:11:06.448Z,2.30
2022-12-29T08:11:39.170Z,2.20
2022-12-29T08:12:11.212Z,2.40
2022-12-29T08:12:43.898Z,2.40
2022-12-29T08:13:15.991Z,2.50
2022-12-29T08:13:48.415Z,2.80
2022-12-29T08:14:20.525Z,2.70
2022-12-29T08:14:52.727Z,2.50
2022-12-29T08:15:30.557Z,2.20
2022-12-29T08:16:04.893Z,2.30
2022-12-29T08:16:37.088Z,2.30
2022-12-29T08:17:09.327Z,2.50
2022-12-29T08:17:41.506Z,2.00
2022-12-29T08:18:13.578Z,2.20
2022-12-29T08:18:45.616Z,2.10
2022-12-29T08:19:17.953Z,2.30
2022-12-29T08:19:51.459Z,2.30
2022-12-29T08:20:23.539Z,2.30
2022-12-29T08:20:56.132Z,2.60
2022-12-29T08:21:29.255Z,2.70
2022-12-29T08:22:01.430Z,3.20
2022-12-29T08:22:33.772Z,2.40
2022-12-29T08:23:05.901Z,3.20
2022-12-29T08:23:38.067Z,3.00
2022-12-29T08:24:12.817Z,2.70
2022-12-29T08:24:44.947Z,2.30
2022-12-29T08:25:17.147Z,2.30
2022-12-29T08:25:58.545Z,2.70
2022-12-29T08:26:33.484Z,2.60
2022-12-29T08:27:15.897Z,2.40
2022-12-29T08:27:52.021Z,2.60
2022-12-29T08:28:24.054Z,2.60
2022-12-29T08:28:56.976Z,2.20
2022-12-29T08:29:29.164Z,2.60
2022-12-29T08:30:01.325Z,2.40
2022-12-29T08:30:33.541Z,2.20
2022-12-29T08:31:09.345Z,2.70
2022-12-29T08:31:43.627Z,2.60
2022-12-29T08:32:16.081Z,2.50
2022-12-29T08:32:48.138Z,2.60
2022-12-29T08:33:22.964Z,2.50
2022-12-29T08:33:56.143Z,2.50
2022-12-29T08:34:28.315Z,2.40
2022-12-29T08:35:00.997Z,2.50
2022-12-29T08:35:33.037Z,2.80
2022-12-29T08:36:07.473Z,2.50
2022-12-29T08:36:39.593Z,2.80
2022-12-29T08:37:11.777Z,2.70
2022-12-29T08:37:43.931Z,2.30
2022-12-29T08:38:16.149Z,2.40
2022-12-29T08:38:48.245Z,2.10
2022-12-29T08:39:20.410Z,2.30
2022-12-29T08:39:52.463Z,2.30
2022-12-29T08:40:25.192Z,2.10
2022-12-29T08:40:58.862Z,2.10
2022-12-29T08:41:31.190Z,2.30
2022-12-29T08:42:04.031Z,2.20
2022-12-29T08:42:38.605Z,2.30
2022-12-29T08:43:10.939Z,2.60
2022-12-29T08:43:47.627Z,2.00
2022-12-29T08:44:19.732Z,2.50
2022-12-29T08:44:51.849Z,2.30
2022-12-29T08:45:24.146Z,2.40
2022-12-29T08:45:58.446Z,2.00
2022-12-29T08:46:30.669Z,2.00
2022-12-29T08:47:02.857Z,2.30
2022-12-29T08:47:35.212Z,2.30
2022-12-29T08:48:07.471Z,2.40
2022-12-29T08:48:39.669Z,2.60
2022-12-29T08:49:13.765Z,2.10
2022-12-29T08:49:45.975Z,2.20
2022-12-29T08:50:18.121Z,2.40
2022-12-29T08:50:51.009Z,2.20
2022-12-29T08:51:25.162Z,2.30